sensor_id;sensor_type;location;lat;lon;timestamp;temperature;humidity
27870;DHT22;15225;50.730;4.244;2023-04-16T19:12:02;10.80;1.00
27870;DHT22;15225;50.730;4.244;2023-04-16T19:14:28;10.50;1.00
27870;DHT22;15225;50.730;4.244;2023-04-16T19:16:54;10.60;1.00
27870;DHT22;15225;50.730;4.244;2023-04-16T19:19:19;10.90;1.00
27870;DHT22;15225;50.730;4.244;2023-04-16T19:21:45;11.20;1.00
27870;DHT22;15225;50.730;4.244;2023-04-16T19:24:10;11.50;99.90
27870;DHT22;15225;50.730;4.244;2023-04-16T19:26:36;11.70;99.90
27870;DHT22;15225;50.730;4.244;2023-04-16T19:29:02;11.90;99.90
27870;DHT22;15225;50.730;4.244;2023-04-16T19:31:28;12.00;99.90
27870;DHT22;15225;50.730;4.244;2023-04-16T19:33:54;12.00;99.90
27870;DHT22;15225;50.730;4.244;2023-04-16T19:36:19;12.00;99.90
27870;DHT22;15225;50.730;4.244;2023-04-16T19:38:45;12.00;99.90
27870;DHT22;15225;50.730;4.244;2023-04-16T19:41:11;11.90;99.90
27870;DHT22;15225;50.730;4.244;2023-04-16T19:43:36;11.90;99.90
27870;DHT22;15225;50.730;4.244;2023-04-16T19:46:02;12.10;99.90
27870;DHT22;15225;50.730;4.244;2023-04-16T19:48:28;12.30;99.90
27870;DHT22;15225;50.730;4.244;2023-04-16T19:50:55;12.40;18.60
27870;DHT22;15225;50.730;4.244;2023-04-16T19:53:20;12.30;64.10
27870;DHT22;15225;50.730;4.244;2023-04-16T19:55:46;12.30;99.90
27870;DHT22;15225;50.730;4.244;2023-04-16T19:58:11;12.50;1.00
27870;DHT22;15225;50.730;4.244;2023-04-16T20:00:39;12.40;1.00
27870;DHT22;15225;50.730;4.244;2023-04-16T20:03:08;12.10;78.30
27870;DHT22;15225;50.730;4.244;2023-04-16T20:05:33;12.00;99.90
27870;DHT22;15225;50.730;4.244;2023-04-16T20:07:59;12.10;99.90
27870;DHT22;15225;50.730;4.244;2023-04-16T20:10:25;12.10;99.90
27870;DHT22;15225;50.730;4.244;2023-04-16T20:12:51;12.10;99.90
27870;DHT22;15225;50.730;4.244;2023-04-16T20:15:17;12.30;99.90
27870;DHT22;15225;50.730;4.244;2023-04-16T20:17:43;12.20;97.10
27870;DHT22;15225;50.730;4.244;2023-04-16T20:20:09;12.60;1.00
27870;DHT22;15225;50.730;4.244;2023-04-16T20:22:39;12.70;99.90
27870;DHT22;15225;50.730;4.244;2023-04-16T20:25:05;12.60;99.90
27870;DHT22;15225;50.730;4.244;2023-04-16T20:27:32;12.20;99.90
27870;DHT22;15225;50.730;4.244;2023-04-16T20:30:01;12.10;99.90
27870;DHT22;15225;50.730;4.244;2023-04-16T20:32:27;12.20;99.90
27870;DHT22;15225;50.730;4.244;2023-04-16T20:34:53;12.20;99.90
27870;DHT22;15225;50.730;4.244;2023-04-16T20:37:22;12.10;99.90
27870;DHT22;15225;50.730;4.244;2023-04-16T20:39:47;12.20;99.90
27870;DHT22;15225;50.730;4.244;2023-04-16T20:42:15;12.30;99.90
27870;DHT22;15225;50.730;4.244;2023-04-16T20:44:41;12.20;99.90
27870;DHT22;15225;50.730;4.244;2023-04-16T20:47:08;12.20;99.90
27870;DHT22;15225;50.730;4.244;2023-04-16T20:49:33;12.20;99.90
27870;DHT22;15225;50.730;4.244;2023-04-16T20:52:00;12.30;99.90
27870;DHT22;15225;50.730;4.244;2023-04-16T20:54:30;12.20;99.90
27870;DHT22;15225;50.730;4.244;2023-04-16T20:56:56;12.20;99.90
27870;DHT22;15225;50.730;4.244;2023-04-16T20:59:23;12.40;1.00
27870;DHT22;15225;50.730;4.244;2023-04-16T21:01:49;12.20;99.90
27870;DHT22;15225;50.730;4.244;2023-04-16T21:04:16;12.30;88.80
27870;DHT22;15225;50.730;4.244;2023-04-16T21:06:42;12.30;76.20
27870;DHT22;15225;50.730;4.244;2023-04-16T21:09:08;12.10;99.90
27870;DHT22;15225;50.730;4.244;2023-04-16T21:11:34;11.80;99.90
27870;DHT22;15225;50.730;4.244;2023-04-16T21:14:04;11.70;99.90
27870;DHT22;15225;50.730;4.244;2023-04-16T21:16:30;11.60;99.90
27870;DHT22;15225;50.730;4.244;2023-04-16T21:18:57;11.80;99.90
27870;DHT22;15225;50.730;4.244;2023-04-16T21:21:23;12.10;99.90
